createdAt,value
2018-01-14T00:01:06.830Z,26.80
2018-01-14T00:03:34.271Z,25.57
2018-01-14T00:06:01.730Z,25.97
2018-01-14T00:08:29.981Z,26.33
2018-01-14T00:10:57.442Z,29.73
2018-01-14T00:13:24.898Z,28.23
2018-01-14T00:15:52.350Z,25.67
2018-01-14T00:18:19.812Z,27.27
2018-01-14T00:20:47.284Z,24.43
2018-01-14T00:23:14.742Z,26.73
2018-01-14T00:25:42.997Z,25.57
2018-01-14T00:28:10.452Z,27.10
2018-01-14T00:30:37.893Z,25.40
2018-01-14T00:33:06.135Z,26.37
2018-01-14T00:35:33.597Z,27.03
2018-01-14T00:38:01.056Z,28.27
2018-01-14T00:40:28.522Z,29.53
2018-01-14T00:42:55.984Z,26.23
2018-01-14T00:45:23.432Z,29.50
2018-01-14T00:47:50.902Z,28.77
2018-01-14T00:50:18.350Z,24.97
2018-01-14T00:52:45.824Z,29.73
2018-01-14T00:55:13.293Z,28.07
2018-01-14T00:57:41.034Z,27.23
2018-01-14T01:00:08.478Z,29.90
2018-01-14T01:02:35.941Z,24.87
2018-01-14T01:05:03.380Z,25.93
2018-01-14T01:07:30.828Z,26.77
2018-01-14T01:09:58.297Z,29.47
2018-01-14T01:12:25.735Z,28.00
2018-01-14T01:14:53.190Z,27.90
2018-01-14T01:17:20.649Z,26.07
2018-01-14T01:19:48.077Z,24.30
2018-01-14T01:22:15.530Z,27.67
2018-01-14T01:24:43.770Z,28.83
2018-01-14T01:27:11.218Z,27.70
2018-01-14T01:29:38.676Z,27.57
2018-01-14T01:32:06.145Z,29.83
2018-01-14T01:34:33.582Z,27.27
2018-01-14T01:37:01.052Z,28.33
2018-01-14T01:39:28.516Z,23.63
2018-01-14T01:41:55.980Z,25.57
2018-01-14T01:44:23.432Z,28.37
2018-01-14T01:46:50.873Z,28.90
2018-01-14T01:49:19.093Z,27.67
2018-01-14T01:51:46.554Z,29.53
2018-01-14T01:54:13.998Z,27.43
2018-01-14T01:56:41.479Z,31.93
2018-01-14T01:59:08.913Z,29.03
2018-01-14T02:01:36.407Z,28.43
2018-01-14T02:04:03.883Z,28.17
2018-01-14T02:06:31.343Z,30.60
2018-01-14T02:08:58.796Z,26.70
2018-01-14T02:11:26.249Z,31.93
2018-01-14T02:13:53.690Z,27.60
2018-01-14T02:16:21.163Z,30.67
2018-01-14T02:18:48.605Z,27.90
2018-01-14T02:21:16.096Z,30.00
2018-01-14T02:23:43.533Z,31.33
2018-01-14T02:26:11.742Z,28.80
2018-01-14T02:28:39.211Z,30.50
2018-01-14T02:31:06.665Z,29.63
2018-01-14T02:33:34.130Z,29.33
2018-01-14T02:36:01.594Z,29.07
2018-01-14T02:38:29.057Z,30.70
2018-01-14T02:40:56.501Z,29.27
2018-01-14T02:43:23.935Z,27.57
2018-01-14T02:45:51.389Z,27.67
2018-01-14T02:48:18.837Z,30.57
2018-01-14T02:50:46.300Z,29.00
2018-01-14T02:53:13.754Z,30.13
2018-01-14T02:55:41.193Z,29.10
2018-01-14T02:58:08.650Z,29.33
2018-01-14T03:00:36.108Z,30.40
2018-01-14T03:03:03.564Z,31.33
2018-01-14T03:05:31.013Z,31.97
2018-01-14T03:07:59.242Z,31.47
2018-01-14T03:10:26.716Z,33.43
2018-01-14T03:12:54.191Z,30.70
2018-01-14T03:15:21.639Z,29.93
2018-01-14T03:17:49.080Z,37.03
2018-01-14T03:20:16.553Z,35.00
2018-01-14T03:22:43.998Z,30.83
2018-01-14T03:25:11.463Z,30.47
2018-01-14T03:27:38.940Z,34.03
2018-01-14T03:30:06.375Z,34.00
2018-01-14T03:32:33.837Z,36.07
2018-01-14T03:35:01.285Z,35.90
2018-01-14T03:37:28.741Z,31.50
2018-01-14T03:39:56.950Z,35.03
2018-01-14T03:42:24.410Z,33.70
2018-01-14T03:44:51.865Z,34.33
2018-01-14T03:47:19.332Z,33.77
2018-01-14T03:49:46.801Z,34.77
2018-01-14T03:52:14.280Z,40.13
2018-01-14T03:54:41.751Z,34.13
2018-01-14T03:57:09.210Z,36.37
2018-01-14T03:59:36.687Z,37.33
2018-01-14T04:02:04.146Z,34.37
2018-01-14T04:04:31.602Z,34.83
2018-01-14T04:06:59.050Z,37.37
2018-01-14T04:09:26.493Z,41.67
2018-01-14T04:11:53.971Z,34.97
2018-01-14T04:14:21.425Z,37.40
2018-01-14T04:16:48.892Z,36.77
2018-01-14T04:19:16.357Z,37.53
2018-01-14T04:21:43.816Z,42.77
2018-01-14T04:24:11.298Z,33.90
2018-01-14T04:26:38.758Z,38.47
2018-01-14T04:29:06.213Z,38.23
2018-01-14T04:31:33.710Z,36.37
2018-01-14T04:34:01.171Z,39.10
2018-01-14T04:36:28.629Z,42.87
2018-01-14T04:38:56.082Z,38.77
2018-01-14T04:41:23.556Z,43.17
2018-01-14T04:43:51.004Z,39.97
2018-01-14T04:46:18.472Z,40.73
2018-01-14T04:48:45.939Z,40.50
2018-01-14T04:51:13.386Z,37.47
2018-01-14T04:53:40.841Z,40.90
2018-01-14T04:56:08.294Z,38.07
2018-01-14T04:58:35.745Z,40.03
2018-01-14T05:01:03.254Z,37.57
2018-01-14T05:03:30.709Z,37.83
2018-01-14T05:05:58.922Z,36.93
2018-01-14T05:08:27.151Z,39.30
2018-01-14T05:10:54.615Z,36.83
2018-01-14T05:13:22.075Z,44.10
2018-01-14T05:15:49.523Z,37.83
2018-01-14T05:18:16.980Z,39.80
2018-01-14T05:20:44.405Z,43.47
2018-01-14T05:23:12.643Z,34.57
2018-01-14T05:25:40.109Z,38.43
2018-01-14T05:28:07.582Z,40.37
2018-01-14T05:30:35.028Z,37.27
2018-01-14T05:33:02.483Z,40.57
2018-01-14T05:35:29.945Z,35.63
2018-01-14T05:37:57.414Z,39.87
2018-01-14T05:40:24.880Z,36.40
2018-01-14T05:42:52.341Z,38.43
2018-01-14T05:45:19.840Z,37.00
2018-01-14T05:47:47.284Z,38.03
2018-01-14T05:50:14.746Z,39.73
2018-01-14T05:52:42.203Z,39.00
2018-01-14T05:55:09.662Z,37.27
2018-01-14T05:57:37.519Z,38.20
2018-01-14T06:00:05.727Z,37.20
2018-01-14T06:02:33.182Z,40.17
2018-01-14T06:05:00.657Z,38.17
2018-01-14T06:07:28.112Z,33.40
2018-01-14T06:09:55.572Z,38.57
2018-01-14T06:12:23.033Z,38.03
2018-01-14T06:14:50.498Z,37.97
2018-01-14T06:17:17.946Z,34.73
2018-01-14T06:19:45.406Z,36.13
2018-01-14T06:22:12.868Z,40.93
2018-01-14T06:24:40.293Z,37.23
2018-01-14T06:27:08.509Z,38.77
2018-01-14T06:29:35.959Z,34.10
2018-01-14T06:32:03.423Z,36.83
2018-01-14T06:34:30.890Z,37.13
2018-01-14T06:36:58.359Z,36.67
2018-01-14T06:39:25.818Z,36.77
2018-01-14T06:41:53.257Z,34.27
2018-01-14T06:44:21.488Z,35.63
2018-01-14T06:46:48.951Z,37.47
2018-01-14T06:49:17.187Z,37.00
2018-01-14T06:51:44.640Z,34.73
2018-01-14T06:54:12.861Z,32.83
2018-01-14T06:56:40.308Z,36.20
2018-01-14T06:59:07.783Z,34.80
2018-01-14T07:01:35.247Z,35.83
2018-01-14T07:04:02.699Z,34.07
2018-01-14T07:06:30.167Z,36.13
2018-01-14T07:08:57.606Z,34.47
2018-01-14T07:11:25.083Z,34.93
2018-01-14T07:13:52.560Z,36.13
2018-01-14T07:16:20.020Z,37.43
2018-01-14T07:18:47.533Z,33.73
2018-01-14T07:21:14.934Z,33.87
2018-01-14T07:23:42.386Z,33.83
2018-01-14T07:26:09.835Z,34.67
2018-01-14T07:28:38.042Z,35.17
2018-01-14T07:31:05.480Z,35.13
2018-01-14T07:33:33.728Z,33.83
2018-01-14T07:36:01.194Z,34.10
2018-01-14T07:38:28.670Z,34.73
2018-01-14T07:40:56.138Z,34.00
2018-01-14T07:43:24.374Z,37.50
2018-01-14T07:45:51.822Z,32.13
2018-01-14T07:48:19.276Z,35.17
2018-01-14T07:50:46.752Z,35.13
2018-01-14T07:53:14.195Z,35.57
2018-01-14T07:55:41.657Z,33.23
2018-01-14T07:58:09.183Z,35.23
2018-01-14T08:00:36.565Z,31.20
2018-01-14T08:03:04.798Z,34.67
2018-01-14T08:05:32.229Z,32.20
2018-01-14T08:07:59.695Z,33.90
2018-01-14T08:10:27.142Z,33.57
2018-01-14T08:12:54.619Z,35.90
2018-01-14T08:15:22.068Z,31.90
2018-01-14T08:17:49.538Z,32.70
2018-01-14T08:20:17.011Z,33.83
2018-01-14T08:22:44.448Z,35.03
2018-01-14T08:25:12.703Z,32.07
2018-01-14T08:27:40.162Z,31.97
2018-01-14T08:30:07.617Z,32.27
2018-01-14T08:32:35.072Z,31.80
2018-01-14T08:35:02.538Z,31.30
2018-01-14T08:37:30.017Z,34.27
2018-01-14T08:39:57.459Z,32.53
2018-01-14T08:42:24.928Z,35.77
2018-01-14T08:44:53.155Z,31.97
2018-01-14T08:47:21.364Z,28.07
2018-01-14T08:49:49.610Z,32.27
2018-01-14T08:52:17.844Z,33.13
2018-01-14T08:54:45.304Z,34.30
2018-01-14T08:57:12.753Z,31.07
2018-01-14T08:59:40.200Z,31.00
2018-01-14T09:02:07.648Z,31.37
2018-01-14T09:04:35.114Z,31.93
2018-01-14T09:07:02.803Z,33.77
2018-01-14T09:09:30.252Z,31.37
2018-01-14T09:11:57.742Z,35.07
2018-01-14T09:14:25.184Z,32.27
2018-01-14T09:16:52.638Z,36.00
2018-01-14T09:19:20.108Z,33.37
2018-01-14T09:21:47.570Z,33.60
2018-01-14T09:24:15.031Z,33.57
2018-01-14T09:26:42.505Z,31.77
2018-01-14T09:29:09.958Z,33.00
2018-01-14T09:31:37.512Z,31.90
2018-01-14T09:34:04.973Z,33.13
2018-01-14T09:36:32.428Z,37.60
2018-01-14T09:38:59.924Z,38.95
2018-01-14T09:41:27.405Z,33.47
2018-01-14T09:43:54.853Z,35.20
2018-01-14T09:46:22.319Z,31.00
2018-01-14T09:48:49.764Z,32.60
2018-01-14T09:51:17.229Z,30.60
2018-01-14T09:53:44.704Z,33.80
2018-01-14T09:56:12.185Z,34.93
2018-01-14T09:58:40.412Z,30.40
2018-01-14T10:01:07.895Z,32.57
2018-01-14T10:03:35.341Z,31.70
2018-01-14T10:06:03.606Z,30.50
2018-01-14T10:08:31.819Z,31.33
2018-01-14T10:10:59.285Z,36.23
2018-01-14T10:13:26.741Z,32.30
2018-01-14T10:15:54.190Z,31.43
2018-01-14T10:18:21.680Z,31.27
2018-01-14T10:20:49.132Z,34.33
2018-01-14T10:23:16.607Z,28.03
2018-01-14T10:25:44.063Z,31.40
2018-01-14T10:28:11.535Z,31.37
2018-01-14T10:30:39.003Z,32.40
2018-01-14T10:33:06.456Z,34.03
2018-01-14T10:35:33.914Z,29.27
2018-01-14T10:38:01.366Z,32.10
2018-01-14T10:40:28.818Z,34.13
2018-01-14T10:42:56.300Z,31.37
2018-01-14T10:45:23.735Z,31.00
2018-01-14T10:47:51.960Z,31.50
2018-01-14T10:50:19.702Z,35.10
2018-01-14T10:52:47.227Z,32.53
2018-01-14T10:55:14.645Z,32.50
2018-01-14T10:57:42.113Z,33.20
2018-01-14T11:00:09.561Z,33.50
2018-01-14T11:02:37.022Z,33.37
2018-01-14T11:05:04.480Z,34.23
2018-01-14T11:07:31.943Z,34.53
2018-01-14T11:09:59.386Z,33.47
2018-01-14T11:12:27.610Z,32.43
2018-01-14T11:14:55.058Z,33.33
2018-01-14T11:17:22.514Z,32.93
2018-01-14T11:19:49.970Z,36.97
2018-01-14T11:22:17.402Z,34.90
2018-01-14T11:24:45.614Z,30.70
2018-01-14T11:27:13.071Z,33.50
2018-01-14T11:29:55.381Z,32.33
2018-01-14T11:32:22.845Z,35.67
2018-01-14T11:34:50.274Z,32.70
2018-01-14T11:37:18.476Z,33.30
2018-01-14T11:39:45.911Z,31.70
2018-01-14T11:42:14.110Z,32.50
2018-01-14T11:44:41.571Z,33.53
2018-01-14T11:47:09.766Z,33.03
2018-01-14T11:49:37.231Z,35.37
2018-01-14T11:52:04.689Z,35.83
2018-01-14T11:54:32.118Z,32.37
2018-01-14T11:56:59.553Z,33.97
2018-01-14T11:59:27.058Z,33.67
2018-01-14T12:01:55.261Z,34.53
2018-01-14T12:04:23.479Z,33.10
2018-01-14T12:06:50.922Z,30.37
2018-01-14T12:09:18.370Z,33.10
2018-01-14T12:11:45.827Z,34.57
2018-01-14T12:14:13.275Z,33.07
2018-01-14T12:16:40.732Z,34.20
2018-01-14T12:19:08.934Z,33.10
2018-01-14T12:21:36.395Z,31.83
2018-01-14T12:24:03.859Z,32.80
2018-01-14T12:26:31.311Z,34.37
2018-01-14T12:28:58.759Z,37.00
2018-01-14T12:31:26.966Z,32.10
2018-01-14T12:37:03.418Z,39.10
2018-01-14T12:39:31.621Z,34.50
2018-01-14T12:41:59.092Z,33.67
2018-01-14T12:44:26.526Z,31.13
2018-01-14T12:46:53.989Z,32.70
2018-01-14T12:49:21.430Z,31.87
2018-01-14T12:51:49.668Z,35.17
2018-01-14T12:54:17.106Z,30.57
2018-01-14T12:56:44.553Z,32.27
2018-01-14T12:59:12.762Z,30.97
2018-01-14T13:01:40.223Z,32.83
2018-01-14T13:04:07.667Z,35.70
2018-01-14T13:06:35.098Z,35.90
2018-01-14T13:09:02.588Z,30.70
2018-01-14T13:11:30.035Z,32.30
2018-01-14T13:13:58.251Z,31.57
2018-01-14T13:16:25.694Z,31.40
2018-01-14T13:18:53.164Z,34.57
2018-01-14T13:21:20.630Z,32.33
2018-01-14T13:23:48.075Z,32.33
2018-01-14T13:26:16.294Z,33.77
2018-01-14T13:28:43.751Z,31.50
2018-01-14T13:31:11.208Z,29.07
2018-01-14T13:33:38.670Z,29.10
2018-01-14T13:36:06.121Z,29.57
2018-01-14T13:38:33.558Z,29.83
2018-01-14T13:41:01.798Z,30.83
2018-01-14T13:43:29.291Z,30.63
2018-01-14T13:45:56.711Z,30.30
2018-01-14T13:48:24.175Z,31.37
2018-01-14T13:50:51.613Z,29.50
2018-01-14T13:53:19.075Z,31.13
2018-01-14T13:55:46.514Z,30.40
2018-01-14T13:58:14.734Z,32.40
2018-01-14T14:00:42.182Z,28.60
2018-01-14T14:03:09.639Z,31.60
2018-01-14T14:05:37.108Z,28.13
2018-01-14T14:08:04.561Z,30.53
2018-01-14T14:10:32.022Z,31.00
2018-01-14T14:12:59.474Z,29.10
2018-01-14T14:15:27.683Z,30.63
2018-01-14T14:17:55.127Z,30.47
2018-01-14T14:20:22.569Z,32.10
2018-01-14T14:22:50.768Z,28.40
2018-01-14T14:25:18.222Z,30.90
2018-01-14T14:27:46.421Z,28.90
2018-01-14T14:30:13.873Z,31.77
2018-01-14T14:32:41.326Z,31.07
2018-01-14T14:35:08.757Z,32.50
2018-01-14T14:37:36.194Z,30.03
2018-01-14T14:40:03.647Z,28.00
2018-01-14T14:42:31.086Z,31.97
2018-01-14T14:44:58.534Z,31.87
2018-01-14T14:47:26.746Z,29.87
2018-01-14T14:49:54.183Z,34.13
2018-01-14T14:52:21.634Z,30.57
2018-01-14T14:54:49.850Z,27.20
2018-01-14T14:57:17.299Z,31.43
2018-01-14T14:59:44.726Z,31.00
2018-01-14T15:02:12.179Z,30.13
2018-01-14T15:04:39.627Z,31.23
2018-01-14T15:07:07.082Z,28.40
2018-01-14T15:09:34.534Z,27.53
2018-01-14T15:12:01.981Z,28.27
2018-01-14T15:14:29.419Z,27.33
2018-01-14T15:16:57.648Z,26.57
2018-01-14T15:19:25.094Z,27.00
2018-01-14T15:21:52.667Z,26.27
2018-01-14T15:24:20.115Z,27.50
2018-01-14T15:26:47.578Z,28.50
2018-01-14T15:29:15.040Z,25.30
2018-01-14T15:31:42.501Z,31.57
2018-01-14T15:34:09.965Z,30.30
2018-01-14T15:36:37.528Z,27.20
2018-01-14T15:39:04.967Z,26.57
2018-01-14T15:41:33.174Z,26.50
2018-01-14T15:44:00.633Z,24.33
2018-01-14T15:46:28.094Z,23.60
2018-01-14T15:48:55.543Z,30.20
2018-01-14T15:51:23.747Z,25.97
2018-01-14T15:53:51.211Z,26.53
2018-01-14T15:56:18.666Z,22.67
2018-01-14T15:58:46.134Z,25.77
2018-01-14T16:01:13.576Z,27.33
2018-01-14T16:03:41.133Z,26.03
2018-01-14T16:06:09.360Z,28.00
2018-01-14T16:08:36.806Z,26.53
2018-01-14T16:11:04.267Z,27.20
2018-01-14T16:13:31.710Z,26.60
2018-01-14T16:15:59.172Z,24.47
2018-01-14T16:18:27.382Z,24.67
2018-01-14T16:20:54.859Z,25.77
2018-01-14T16:23:22.303Z,23.67
2018-01-14T16:25:49.750Z,26.50
2018-01-14T16:28:17.225Z,26.50
2018-01-14T16:30:44.742Z,26.13
2018-01-14T16:33:12.971Z,26.60
2018-01-14T16:35:40.435Z,27.23
2018-01-14T16:38:07.882Z,25.87
2018-01-14T16:40:35.339Z,25.77
2018-01-14T16:43:02.785Z,23.07
2018-01-14T16:45:31.010Z,24.27
2018-01-14T16:47:58.456Z,25.93
2018-01-14T16:50:25.911Z,25.50
2018-01-14T16:52:53.377Z,25.70
2018-01-14T16:55:20.832Z,29.47
2018-01-14T16:57:48.291Z,25.93
2018-01-14T17:00:15.764Z,22.33
2018-01-14T17:02:43.210Z,28.97
2018-01-14T17:05:10.645Z,24.40
2018-01-14T17:07:38.115Z,27.60
2018-01-14T17:10:05.555Z,28.57
2018-01-14T17:12:33.003Z,26.83
2018-01-14T17:15:00.457Z,31.20
2018-01-14T17:17:27.898Z,27.93
2018-01-14T17:19:55.325Z,27.63
2018-01-14T17:22:23.539Z,27.53
2018-01-14T17:24:50.980Z,25.83
2018-01-14T17:27:19.177Z,24.70
2018-01-14T17:29:46.632Z,30.00
2018-01-14T17:32:14.835Z,28.03
2018-01-14T17:34:42.295Z,27.03
2018-01-14T17:37:09.740Z,27.10
2018-01-14T17:39:37.184Z,23.87
2018-01-14T17:42:05.393Z,28.47
2018-01-14T17:44:32.824Z,27.77
2018-01-14T17:47:01.041Z,26.27
2018-01-14T17:49:28.471Z,27.70
2018-01-14T17:51:56.684Z,25.60
2018-01-14T17:54:24.133Z,29.37
2018-01-14T17:56:51.583Z,29.17
2018-01-14T17:59:19.787Z,28.17
2018-01-14T18:01:47.246Z,28.77
2018-01-14T18:04:14.686Z,23.83
2018-01-14T18:06:42.883Z,25.57
2018-01-14T18:09:10.335Z,26.73
2018-01-14T18:11:37.779Z,25.80
2018-01-14T18:14:05.222Z,26.37
2018-01-14T18:16:32.653Z,28.60
2018-01-14T18:19:00.115Z,31.63
2018-01-14T18:21:27.562Z,26.33
2018-01-14T18:23:54.997Z,25.47
2018-01-14T18:26:23.220Z,27.57
2018-01-14T18:28:50.678Z,26.20
2018-01-14T18:31:18.132Z,25.87
2018-01-14T18:33:45.584Z,25.30
2018-01-14T18:36:13.030Z,25.27
2018-01-14T18:38:41.232Z,26.30
2018-01-14T18:41:08.699Z,26.37
2018-01-14T18:43:36.130Z,26.33
2018-01-14T18:46:12.897Z,26.60
2018-01-14T18:48:41.108Z,25.60
2018-01-14T18:51:08.555Z,25.13
2018-01-14T18:53:36.754Z,25.57
2018-01-14T18:56:04.224Z,25.57
2018-01-14T18:58:31.672Z,27.53
2018-01-14T19:00:59.904Z,28.70
2018-01-14T19:03:27.323Z,27.13
2018-01-14T19:05:54.787Z,25.87
2018-01-14T19:08:22.227Z,31.37
2018-01-14T19:10:50.430Z,29.83
2018-01-14T19:13:17.880Z,25.47
2018-01-14T19:15:45.316Z,28.57
2018-01-14T19:18:13.530Z,27.83
2018-01-14T19:20:40.996Z,26.27
2018-01-14T19:23:08.434Z,28.83
2018-01-14T19:25:36.687Z,27.77
2018-01-14T19:28:04.143Z,29.77
2018-01-14T19:30:31.574Z,26.37
2018-01-14T19:32:59.042Z,26.87
2018-01-14T19:35:26.484Z,25.17
2018-01-14T19:37:53.914Z,28.90
2018-01-14T19:40:22.121Z,27.40
2018-01-14T19:42:49.567Z,28.03
2018-01-14T19:45:17.871Z,26.90
2018-01-14T19:47:45.303Z,28.77
2018-01-14T19:50:13.510Z,28.53
2018-01-14T19:52:40.940Z,28.47
2018-01-14T19:55:09.145Z,28.20
2018-01-14T19:57:36.577Z,25.77
2018-01-14T20:00:04.030Z,29.57
2018-01-14T20:02:31.457Z,25.83
2018-01-14T20:04:58.907Z,27.43
2018-01-14T20:07:26.352Z,25.30
2018-01-14T20:09:53.831Z,26.27
2018-01-14T20:12:21.262Z,26.93
2018-01-14T20:14:49.474Z,26.47
2018-01-14T20:17:16.932Z,26.73
2018-01-14T20:19:44.385Z,27.87
2018-01-14T20:22:11.842Z,25.77
2018-01-14T20:24:40.046Z,28.40
2018-01-14T20:27:07.510Z,26.83
2018-01-14T20:29:34.925Z,26.90
2018-01-14T20:32:03.145Z,27.60
2018-01-14T20:34:30.574Z,26.60
2018-01-14T20:36:58.789Z,25.47
2018-01-14T20:39:26.226Z,26.00
2018-01-14T20:41:54.434Z,26.40
2018-01-14T20:44:27.715Z,25.43
2018-01-14T20:46:55.153Z,28.73
2018-01-14T20:49:23.362Z,24.67
2018-01-14T20:51:50.822Z,25.10
2018-01-14T20:54:18.255Z,28.30
2018-01-14T20:56:46.470Z,25.23
2018-01-14T20:59:13.919Z,24.80
2018-01-14T21:01:41.394Z,25.43
2018-01-14T21:04:08.832Z,31.63
2018-01-14T21:06:37.044Z,27.40
2018-01-14T21:09:04.482Z,26.83
2018-01-14T21:11:31.925Z,26.13
2018-01-14T21:14:00.181Z,26.53
2018-01-14T21:16:27.622Z,30.37
2018-01-14T21:18:55.085Z,28.30
2018-01-14T21:21:22.531Z,28.63
2018-01-14T21:23:49.978Z,27.13
2018-01-14T21:26:17.418Z,27.33
2018-01-14T21:28:45.610Z,27.70
2018-01-14T21:31:13.838Z,26.13
2018-01-14T21:33:41.298Z,25.93
2018-01-14T21:36:09.502Z,31.10
2018-01-14T21:38:36.943Z,24.67
2018-01-14T21:41:04.395Z,29.63
2018-01-14T21:43:31.825Z,27.20
2018-01-14T21:45:59.266Z,31.33
2018-01-14T21:48:26.748Z,30.60
2018-01-14T21:50:54.145Z,26.20
2018-01-14T21:53:21.588Z,26.00
2018-01-14T21:55:49.049Z,26.67
2018-01-14T21:58:16.485Z,27.03
2018-01-14T22:00:44.695Z,27.30
2018-01-14T22:03:12.134Z,24.57
2018-01-14T22:05:40.347Z,29.50
2018-01-14T22:08:07.777Z,26.13
2018-01-14T22:10:35.990Z,27.70
2018-01-14T22:13:03.429Z,27.97
2018-01-14T22:15:30.857Z,27.83
2018-01-14T22:17:58.298Z,26.20
2018-01-14T22:20:25.751Z,27.57
2018-01-14T22:22:53.200Z,26.27
2018-01-14T22:25:20.634Z,30.97
2018-01-14T22:27:48.079Z,28.93
2018-01-14T22:30:15.515Z,26.63
2018-01-14T22:32:42.963Z,27.40
2018-01-14T22:35:10.405Z,27.37
2018-01-14T22:37:37.846Z,27.53
2018-01-14T22:40:05.287Z,26.37
2018-01-14T22:42:32.743Z,27.13
2018-01-14T22:45:00.175Z,28.53
2018-01-14T22:47:27.628Z,27.33
2018-01-14T22:49:55.043Z,27.40
2018-01-14T22:52:23.256Z,29.40
2018-01-14T22:54:50.690Z,25.20
2018-01-14T22:57:18.912Z,27.97
2018-01-14T22:59:46.361Z,28.07
2018-01-14T23:02:13.803Z,26.30
2018-01-14T23:04:42.014Z,26.57
2018-01-14T23:07:09.467Z,29.50
2018-01-14T23:09:36.902Z,26.43
2018-01-14T23:12:05.125Z,28.70
2018-01-14T23:14:32.567Z,30.13
2018-01-14T23:17:00.010Z,26.47
2018-01-14T23:19:28.214Z,30.33
2018-01-14T23:21:55.650Z,28.17
2018-01-14T23:24:23.863Z,27.57
2018-01-14T23:26:51.312Z,31.17
2018-01-14T23:29:18.738Z,28.23
2018-01-14T23:31:46.191Z,27.33
2018-01-14T23:34:13.617Z,25.30
2018-01-14T23:36:41.064Z,28.33
2018-01-14T23:39:08.498Z,29.03
2018-01-14T23:41:36.705Z,28.20
2018-01-14T23:44:04.141Z,27.13
2018-01-14T23:46:32.354Z,28.07
2018-01-14T23:48:59.795Z,25.50
2018-01-14T23:51:27.238Z,29.57
2018-01-14T23:53:55.456Z,26.80
2018-01-14T23:56:22.888Z,29.83
2018-01-14T23:58:51.111Z,28.00
